sensor_id;sensor_type;location;lat;lon;timestamp;temperature;humidity
2200;DHT22;1106;48.762;9.168;2022-10-31T07:22:36;10.90;99.90
2200;DHT22;1106;48.762;9.168;2022-10-31T07:25:04;11.20;99.80
2200;DHT22;1106;48.762;9.168;2022-10-31T07:27:35;11.60;98.50
2200;DHT22;1106;48.762;9.168;2022-10-31T07:30:03;11.90;96.90
2200;DHT22;1106;48.762;9.168;2022-10-31T07:32:40;12.20;95.90
2200;DHT22;1106;48.762;9.168;2022-10-31T07:35:08;12.30;94.80
2200;DHT22;1106;48.762;9.168;2022-10-31T07:37:36;12.50;94.20
2200;DHT22;1106;48.762;9.168;2022-10-31T07:40:06;12.70;93.50
2200;DHT22;1106;48.762;9.168;2022-10-31T07:42:35;12.70;92.90
2200;DHT22;1106;48.762;9.168;2022-10-31T07:45:02;12.90;92.30
2200;DHT22;1106;48.762;9.168;2022-10-31T07:47:30;13.00;91.60
2200;DHT22;1106;48.762;9.168;2022-10-31T07:50:04;13.00;90.90
2200;DHT22;1106;48.762;9.168;2022-10-31T07:52:31;13.10;90.90
2200;DHT22;1106;48.762;9.168;2022-10-31T07:55:02;13.20;90.30
2200;DHT22;1106;48.762;9.168;2022-10-31T07:57:29;13.30;90.20
2200;DHT22;1106;48.762;9.168;2022-10-31T07:59:57;13.50;90.00
2200;DHT22;1106;48.762;9.168;2022-10-31T08:02:24;13.50;89.30
2200;DHT22;1106;48.762;9.168;2022-10-31T08:04:51;13.50;89.50
2200;DHT22;1106;48.762;9.168;2022-10-31T08:07:18;13.60;89.50
2200;DHT22;1106;48.762;9.168;2022-10-31T08:09:47;13.70;89.20
2200;DHT22;1106;48.762;9.168;2022-10-31T08:12:15;13.80;89.10
2200;DHT22;1106;48.762;9.168;2022-10-31T08:14:42;14.00;88.80
2200;DHT22;1106;48.762;9.168;2022-10-31T08:17:09;14.20;88.30
2200;DHT22;1106;48.762;9.168;2022-10-31T08:19:36;14.30;87.50
2200;DHT22;1106;48.762;9.168;2022-10-31T08:22:03;14.40;86.80
2200;DHT22;1106;48.762;9.168;2022-10-31T08:24:30;14.50;86.70
2200;DHT22;1106;48.762;9.168;2022-10-31T08:26:57;14.50;86.00
2200;DHT22;1106;48.762;9.168;2022-10-31T08:29:28;14.60;85.80
2200;DHT22;1106;48.762;9.168;2022-10-31T08:31:55;14.70;85.30
2200;DHT22;1106;48.762;9.168;2022-10-31T08:34:24;14.70;85.20
2200;DHT22;1106;48.762;9.168;2022-10-31T08:36:51;14.70;85.50
2200;DHT22;1106;48.762;9.168;2022-10-31T08:39:18;14.70;85.30
2200;DHT22;1106;48.762;9.168;2022-10-31T08:41:46;14.90;85.10
2200;DHT22;1106;48.762;9.168;2022-10-31T08:44:12;15.10;84.30
2200;DHT22;1106;48.762;9.168;2022-10-31T08:46:42;15.10;84.00
2200;DHT22;1106;48.762;9.168;2022-10-31T08:49:09;15.20;83.80
2200;DHT22;1106;48.762;9.168;2022-10-31T08:51:36;15.40;83.50
2200;DHT22;1106;48.762;9.168;2022-10-31T08:54:03;15.40;83.00
2200;DHT22;1106;48.762;9.168;2022-10-31T08:56:30;15.50;83.30
2200;DHT22;1106;48.762;9.168;2022-10-31T08:58:57;15.70;83.00
2200;DHT22;1106;48.762;9.168;2022-10-31T09:01:24;15.60;82.10
2200;DHT22;1106;48.762;9.168;2022-10-31T09:03:52;15.70;82.00
2200;DHT22;1106;48.762;9.168;2022-10-31T09:06:19;15.80;81.50
2200;DHT22;1106;48.762;9.168;2022-10-31T09:08:49;16.00;80.90
2200;DHT22;1106;48.762;9.168;2022-10-31T09:11:16;16.10;80.60
2200;DHT22;1106;48.762;9.168;2022-10-31T09:13:46;16.20;80.30
2200;DHT22;1106;48.762;9.168;2022-10-31T09:16:13;16.30;80.10
2200;DHT22;1106;48.762;9.168;2022-10-31T09:18:40;16.50;79.60
2200;DHT22;1106;48.762;9.168;2022-10-31T09:21:08;16.40;79.70
2200;DHT22;1106;48.762;9.168;2022-10-31T09:23:35;16.50;79.40
2200;DHT22;1106;48.762;9.168;2022-10-31T09:26:02;16.50;79.80
2200;DHT22;1106;48.762;9.168;2022-10-31T09:28:29;16.50;82.40
2200;DHT22;1106;48.762;9.168;2022-10-31T09:30:57;16.60;80.30
2200;DHT22;1106;48.762;9.168;2022-10-31T09:33:24;16.70;79.60
2200;DHT22;1106;48.762;9.168;2022-10-31T09:35:51;16.80;78.90
2200;DHT22;1106;48.762;9.168;2022-10-31T09:38:20;16.90;78.60
2200;DHT22;1106;48.762;9.168;2022-10-31T09:40:54;17.10;78.30
2200;DHT22;1106;48.762;9.168;2022-10-31T09:43:27;17.20;77.60
2200;DHT22;1106;48.762;9.168;2022-10-31T09:46:00;17.30;77.00
2200;DHT22;1106;48.762;9.168;2022-10-31T09:48:49;17.30;77.00
2200;DHT22;1106;48.762;9.168;2022-10-31T09:51:22;17.30;76.60
2200;DHT22;1106;48.762;9.168;2022-10-31T09:53:54;17.40;76.80
2200;DHT22;1106;48.762;9.168;2022-10-31T09:56:26;17.40;78.20
2200;DHT22;1106;48.762;9.168;2022-10-31T09:58:55;17.40;77.50
2200;DHT22;1106;48.762;9.168;2022-10-31T10:01:30;17.50;76.40
2200;DHT22;1106;48.762;9.168;2022-10-31T10:04:02;17.50;76.40
2200;DHT22;1106;48.762;9.168;2022-10-31T10:06:33;17.60;76.10
2200;DHT22;1106;48.762;9.168;2022-10-31T10:09:03;17.60;76.50
2200;DHT22;1106;48.762;9.168;2022-10-31T10:11:48;17.70;76.30
2200;DHT22;1106;48.762;9.168;2022-10-31T10:14:29;17.80;76.00
2200;DHT22;1106;48.762;9.168;2022-10-31T10:17:11;18.10;75.30
2200;DHT22;1106;48.762;9.168;2022-10-31T10:19:59;18.20;74.70
2200;DHT22;1106;48.762;9.168;2022-10-31T10:22:36;18.30;74.30
2200;DHT22;1106;48.762;9.168;2022-10-31T10:25:15;18.40;73.90
2200;DHT22;1106;48.762;9.168;2022-10-31T10:27:52;18.50;73.80
2200;DHT22;1106;48.762;9.168;2022-10-31T10:30:22;18.40;73.50
2200;DHT22;1106;48.762;9.168;2022-10-31T10:32:52;18.40;73.40
2200;DHT22;1106;48.762;9.168;2022-10-31T10:35:24;18.40;73.30
2200;DHT22;1106;48.762;9.168;2022-10-31T10:37:57;18.30;73.30
2200;DHT22;1106;48.762;9.168;2022-10-31T10:40:28;18.30;73.50
2200;DHT22;1106;48.762;9.168;2022-10-31T10:43:19;18.50;73.10
2200;DHT22;1106;48.762;9.168;2022-10-31T10:45:50;18.50;73.00
2200;DHT22;1106;48.762;9.168;2022-10-31T10:48:42;18.70;73.00
2200;DHT22;1106;48.762;9.168;2022-10-31T10:51:18;18.80;72.50
2200;DHT22;1106;48.762;9.168;2022-10-31T10:53:58;18.90;72.10
2200;DHT22;1106;48.762;9.168;2022-10-31T10:56:39;18.90;71.80
2200;DHT22;1106;48.762;9.168;2022-10-31T10:59:10;18.80;72.30
2200;DHT22;1106;48.762;9.168;2022-10-31T11:01:39;19.00;72.20
2200;DHT22;1106;48.762;9.168;2022-10-31T11:04:23;19.00;71.80
2200;DHT22;1106;48.762;9.168;2022-10-31T11:07:00;19.10;71.30
2200;DHT22;1106;48.762;9.168;2022-10-31T11:09:28;19.10;71.10
2200;DHT22;1106;48.762;9.168;2022-10-31T11:11:57;19.00;71.50
2200;DHT22;1106;48.762;9.168;2022-10-31T11:14:25;19.00;71.50
2200;DHT22;1106;48.762;9.168;2022-10-31T11:16:55;19.10;71.80
2200;DHT22;1106;48.762;9.168;2022-10-31T11:19:33;19.30;71.50
2200;DHT22;1106;48.762;9.168;2022-10-31T11:22:05;19.30;71.10
2200;DHT22;1106;48.762;9.168;2022-10-31T11:24:38;19.40;71.00
2200;DHT22;1106;48.762;9.168;2022-10-31T11:27:15;19.60;70.80
2200;DHT22;1106;48.762;9.168;2022-10-31T11:29:42;19.70;70.20
2200;DHT22;1106;48.762;9.168;2022-10-31T11:32:19;19.70;70.00
2200;DHT22;1106;48.762;9.168;2022-10-31T11:34:49;19.90;69.60
2200;DHT22;1106;48.762;9.168;2022-10-31T11:37:21;19.90;69.50
2200;DHT22;1106;48.762;9.168;2022-10-31T11:39:50;19.90;69.60
2200;DHT22;1106;48.762;9.168;2022-10-31T11:42:22;19.80;69.80
2200;DHT22;1106;48.762;9.168;2022-10-31T11:44:50;19.90;69.80
2200;DHT22;1106;48.762;9.168;2022-10-31T11:47:21;20.00;69.80
2200;DHT22;1106;48.762;9.168;2022-10-31T11:49:50;20.00;69.70
2200;DHT22;1106;48.762;9.168;2022-10-31T11:52:20;20.00;69.90
2200;DHT22;1106;48.762;9.168;2022-10-31T11:54:50;20.00;69.90
2200;DHT22;1106;48.762;9.168;2022-10-31T11:57:25;20.10;69.50
2200;DHT22;1106;48.762;9.168;2022-10-31T11:59:54;20.20;69.40
2200;DHT22;1106;48.762;9.168;2022-10-31T12:02:22;20.30;69.60
2200;DHT22;1106;48.762;9.168;2022-10-31T12:04:54;20.30;69.90
2200;DHT22;1106;48.762;9.168;2022-10-31T12:07:22;20.40;69.60
2200;DHT22;1106;48.762;9.168;2022-10-31T12:09:50;20.50;69.40
2200;DHT22;1106;48.762;9.168;2022-10-31T12:12:50;20.60;68.80
2200;DHT22;1106;48.762;9.168;2022-10-31T12:15:31;20.60;68.50
2200;DHT22;1106;48.762;9.168;2022-10-31T12:18:21;20.70;68.40
2200;DHT22;1106;48.762;9.168;2022-10-31T12:20:58;20.80;68.30
2200;DHT22;1106;48.762;9.168;2022-10-31T12:23:36;20.90;68.10
2200;DHT22;1106;48.762;9.168;2022-10-31T12:26:14;20.80;68.00
2200;DHT22;1106;48.762;9.168;2022-10-31T12:28:58;20.80;68.50
2200;DHT22;1106;48.762;9.168;2022-10-31T12:31:41;20.90;68.20
2200;DHT22;1106;48.762;9.168;2022-10-31T12:34:40;20.90;67.80
2200;DHT22;1106;48.762;9.168;2022-10-31T12:37:19;20.90;68.00
2200;DHT22;1106;48.762;9.168;2022-10-31T12:39:59;20.90;68.10
2200;DHT22;1106;48.762;9.168;2022-10-31T12:42:39;20.90;68.10
2200;DHT22;1106;48.762;9.168;2022-10-31T12:48:29;20.90;68.30
2200;DHT22;1106;48.762;9.168;2022-10-31T12:51:05;20.90;68.50
2200;DHT22;1106;48.762;9.168;2022-10-31T12:53:51;20.80;68.60
2200;DHT22;1106;48.762;9.168;2022-10-31T12:56:35;20.70;68.90
2200;DHT22;1106;48.762;9.168;2022-10-31T12:59:08;20.70;69.00
2200;DHT22;1106;48.762;9.168;2022-10-31T13:01:40;20.70;69.20
2200;DHT22;1106;48.762;9.168;2022-10-31T13:04:14;20.70;69.20
2200;DHT22;1106;48.762;9.168;2022-10-31T13:06:46;20.60;69.30
2200;DHT22;1106;48.762;9.168;2022-10-31T13:09:19;20.60;69.60
2200;DHT22;1106;48.762;9.168;2022-10-31T13:11:50;20.50;70.00
2200;DHT22;1106;48.762;9.168;2022-10-31T13:14:24;20.50;70.40
2200;DHT22;1106;48.762;9.168;2022-10-31T13:16:55;20.50;70.30
2200;DHT22;1106;48.762;9.168;2022-10-31T13:19:25;20.50;70.40
2200;DHT22;1106;48.762;9.168;2022-10-31T13:21:57;20.40;70.80
2200;DHT22;1106;48.762;9.168;2022-10-31T13:24:33;20.30;71.10
2200;DHT22;1106;48.762;9.168;2022-10-31T13:27:03;20.30;71.40
2200;DHT22;1106;48.762;9.168;2022-10-31T13:29:39;20.30;71.30
2200;DHT22;1106;48.762;9.168;2022-10-31T13:32:10;20.30;71.10
2200;DHT22;1106;48.762;9.168;2022-10-31T13:34:40;20.40;71.20
2200;DHT22;1106;48.762;9.168;2022-10-31T13:37:15;20.50;70.90
2200;DHT22;1106;48.762;9.168;2022-10-31T13:39:58;20.60;70.60
2200;DHT22;1106;48.762;9.168;2022-10-31T13:42:37;20.60;70.50
2200;DHT22;1106;48.762;9.168;2022-10-31T13:45:12;20.70;70.30
2200;DHT22;1106;48.762;9.168;2022-10-31T13:47:41;20.80;70.00
2200;DHT22;1106;48.762;9.168;2022-10-31T13:50:20;20.90;69.80
2200;DHT22;1106;48.762;9.168;2022-10-31T13:52:47;21.00;69.50
2200;DHT22;1106;48.762;9.168;2022-10-31T13:55:37;21.10;69.20
2200;DHT22;1106;48.762;9.168;2022-10-31T13:58:21;21.10;69.10
2200;DHT22;1106;48.762;9.168;2022-10-31T14:00:59;21.00;69.10
2200;DHT22;1106;48.762;9.168;2022-10-31T14:03:30;20.80;69.60
2200;DHT22;1106;48.762;9.168;2022-10-31T14:06:00;20.70;69.80
2200;DHT22;1106;48.762;9.168;2022-10-31T14:08:28;20.50;70.30
2200;DHT22;1106;48.762;9.168;2022-10-31T14:10:57;20.40;70.50
2200;DHT22;1106;48.762;9.168;2022-10-31T14:13:31;20.40;70.60
2200;DHT22;1106;48.762;9.168;2022-10-31T14:16:01;20.40;70.80
2200;DHT22;1106;48.762;9.168;2022-10-31T14:18:33;20.40;70.90
2200;DHT22;1106;48.762;9.168;2022-10-31T14:21:01;20.40;70.80
2200;DHT22;1106;48.762;9.168;2022-10-31T14:23:39;20.40;70.90
2200;DHT22;1106;48.762;9.168;2022-10-31T14:26:21;20.40;71.00
2200;DHT22;1106;48.762;9.168;2022-10-31T14:29:02;20.30;71.20
2200;DHT22;1106;48.762;9.168;2022-10-31T14:31:32;20.20;71.40
2200;DHT22;1106;48.762;9.168;2022-10-31T14:34:17;20.10;71.70
2200;DHT22;1106;48.762;9.168;2022-10-31T14:36:57;20.20;71.60
2200;DHT22;1106;48.762;9.168;2022-10-31T14:39:30;20.30;71.60
2200;DHT22;1106;48.762;9.168;2022-10-31T14:42:10;20.30;71.40
2200;DHT22;1106;48.762;9.168;2022-10-31T14:45:09;20.30;71.40
2200;DHT22;1106;48.762;9.168;2022-10-31T14:47:49;20.20;71.50
2200;DHT22;1106;48.762;9.168;2022-10-31T14:50:34;20.20;71.70
2200;DHT22;1106;48.762;9.168;2022-10-31T14:53:05;20.10;71.70
2200;DHT22;1106;48.762;9.168;2022-10-31T14:55:33;20.10;71.80
2200;DHT22;1106;48.762;9.168;2022-10-31T14:58:08;20.10;71.80
2200;DHT22;1106;48.762;9.168;2022-10-31T15:00:36;20.10;72.00
2200;DHT22;1106;48.762;9.168;2022-10-31T15:03:11;20.00;72.10
2200;DHT22;1106;48.762;9.168;2022-10-31T15:05:46;20.00;72.20
2200;DHT22;1106;48.762;9.168;2022-10-31T15:08:29;20.00;72.30
2200;DHT22;1106;48.762;9.168;2022-10-31T15:10:56;20.00;72.40
2200;DHT22;1106;48.762;9.168;2022-10-31T15:13:23;20.00;72.60
2200;DHT22;1106;48.762;9.168;2022-10-31T15:15:53;19.90;72.90
2200;DHT22;1106;48.762;9.168;2022-10-31T15:18:23;19.70;74.10
2200;DHT22;1106;48.762;9.168;2022-10-31T15:20:53;19.60;75.40
2200;DHT22;1106;48.762;9.168;2022-10-31T15:23:24;19.40;76.70
2200;DHT22;1106;48.762;9.168;2022-10-31T15:25:58;19.20;77.10
2200;DHT22;1106;48.762;9.168;2022-10-31T15:28:26;19.10;77.40
2200;DHT22;1106;48.762;9.168;2022-10-31T15:30:56;19.00;77.60
2200;DHT22;1106;48.762;9.168;2022-10-31T15:33:25;18.90;77.90
2200;DHT22;1106;48.762;9.168;2022-10-31T15:35:57;18.80;78.20
2200;DHT22;1106;48.762;9.168;2022-10-31T15:38:25;18.80;78.40
2200;DHT22;1106;48.762;9.168;2022-10-31T15:41:01;18.60;78.70
2200;DHT22;1106;48.762;9.168;2022-10-31T15:43:33;18.60;79.20
2200;DHT22;1106;48.762;9.168;2022-10-31T15:46:02;18.50;79.50
2200;DHT22;1106;48.762;9.168;2022-10-31T15:48:35;18.30;79.80
2200;DHT22;1106;48.762;9.168;2022-10-31T15:51:05;18.20;80.30
2200;DHT22;1106;48.762;9.168;2022-10-31T15:53:36;18.20;80.50
2200;DHT22;1106;48.762;9.168;2022-10-31T15:56:12;18.00;81.80
2200;DHT22;1106;48.762;9.168;2022-10-31T15:58:42;17.80;82.80
2200;DHT22;1106;48.762;9.168;2022-10-31T16:01:21;17.60;83.30
2200;DHT22;1106;48.762;9.168;2022-10-31T16:04:05;17.50;83.60
2200;DHT22;1106;48.762;9.168;2022-10-31T16:06:34;17.40;83.80
2200;DHT22;1106;48.762;9.168;2022-10-31T16:09:03;17.40;83.90
2200;DHT22;1106;48.762;9.168;2022-10-31T16:11:35;17.30;84.20
2200;DHT22;1106;48.762;9.168;2022-10-31T16:14:05;17.30;84.20
2200;DHT22;1106;48.762;9.168;2022-10-31T16:16:40;17.20;84.20
2200;DHT22;1106;48.762;9.168;2022-10-31T16:19:15;17.20;84.40
2200;DHT22;1106;48.762;9.168;2022-10-31T16:21:49;17.00;84.80
2200;DHT22;1106;48.762;9.168;2022-10-31T16:24:19;16.90;85.10
2200;DHT22;1106;48.762;9.168;2022-10-31T16:26:49;16.80;85.30
2200;DHT22;1106;48.762;9.168;2022-10-31T16:29:28;16.70;85.80
2200;DHT22;1106;48.762;9.168;2022-10-31T16:32:25;16.60;86.20
2200;DHT22;1106;48.762;9.168;2022-10-31T16:34:58;16.60;86.40
2200;DHT22;1106;48.762;9.168;2022-10-31T16:37:29;16.50;86.40
2200;DHT22;1106;48.762;9.168;2022-10-31T16:39:59;16.40;87.20
2200;DHT22;1106;48.762;9.168;2022-10-31T16:42:26;16.40;88.00
2200;DHT22;1106;48.762;9.168;2022-10-31T16:44:57;16.30;87.70
2200;DHT22;1106;48.762;9.168;2022-10-31T16:47:24;16.20;87.90
2200;DHT22;1106;48.762;9.168;2022-10-31T16:49:51;16.10;88.40
2200;DHT22;1106;48.762;9.168;2022-10-31T16:52:18;16.00;88.50
2200;DHT22;1106;48.762;9.168;2022-10-31T16:54:47;15.90;88.60
2200;DHT22;1106;48.762;9.168;2022-10-31T16:57:16;15.80;88.80
2200;DHT22;1106;48.762;9.168;2022-10-31T16:59:44;15.80;89.00
2200;DHT22;1106;48.762;9.168;2022-10-31T17:02:15;15.80;89.10
2200;DHT22;1106;48.762;9.168;2022-10-31T17:04:43;15.70;89.40
2200;DHT22;1106;48.762;9.168;2022-10-31T17:07:10;15.60;89.60
2200;DHT22;1106;48.762;9.168;2022-10-31T17:09:37;15.50;89.80
2200;DHT22;1106;48.762;9.168;2022-10-31T17:12:09;15.50;90.10
2200;DHT22;1106;48.762;9.168;2022-10-31T17:14:40;15.50;90.10
2200;DHT22;1106;48.762;9.168;2022-10-31T17:17:07;15.50;89.80
2200;DHT22;1106;48.762;9.168;2022-10-31T17:19:34;15.40;90.20
2200;DHT22;1106;48.762;9.168;2022-10-31T17:22:01;15.30;90.70
2200;DHT22;1106;48.762;9.168;2022-10-31T17:24:28;15.30;91.00
2200;DHT22;1106;48.762;9.168;2022-10-31T17:26:55;15.20;91.00
2200;DHT22;1106;48.762;9.168;2022-10-31T17:29:24;15.20;91.00
2200;DHT22;1106;48.762;9.168;2022-10-31T17:31:50;15.20;91.30
2200;DHT22;1106;48.762;9.168;2022-10-31T17:34:17;15.20;91.20
2200;DHT22;1106;48.762;9.168;2022-10-31T17:36:49;15.10;91.30
2200;DHT22;1106;48.762;9.168;2022-10-31T17:39:17;15.10;91.50
2200;DHT22;1106;48.762;9.168;2022-10-31T17:41:44;15.00;92.00
2200;DHT22;1106;48.762;9.168;2022-10-31T17:44:11;14.80;92.50
2200;DHT22;1106;48.762;9.168;2022-10-31T17:46:39;14.80;92.70
2200;DHT22;1106;48.762;9.168;2022-10-31T17:49:06;14.80;92.50
2200;DHT22;1106;48.762;9.168;2022-10-31T17:51:34;14.80;92.50
2200;DHT22;1106;48.762;9.168;2022-10-31T17:54:04;14.80;92.50
2200;DHT22;1106;48.762;9.168;2022-10-31T17:56:33;14.70;92.70
2200;DHT22;1106;48.762;9.168;2022-10-31T17:59:00;14.70;92.70
2200;DHT22;1106;48.762;9.168;2022-10-31T18:01:27;14.70;92.50
2200;DHT22;1106;48.762;9.168;2022-10-31T18:03:56;14.70;92.70
2200;DHT22;1106;48.762;9.168;2022-10-31T18:06:26;14.60;92.80
2200;DHT22;1106;48.762;9.168;2022-10-31T18:08:52;14.50;93.10
2200;DHT22;1106;48.762;9.168;2022-10-31T18:11:22;14.50;93.20
2200;DHT22;1106;48.762;9.168;2022-10-31T18:13:54;14.40;93.20
2200;DHT22;1106;48.762;9.168;2022-10-31T18:16:22;14.40;93.20
2200;DHT22;1106;48.762;9.168;2022-10-31T18:18:49;14.40;93.60
2200;DHT22;1106;48.762;9.168;2022-10-31T18:21:18;14.30;94.50
2200;DHT22;1106;48.762;9.168;2022-10-31T18:23:45;14.30;94.10
2200;DHT22;1106;48.762;9.168;2022-10-31T18:26:13;14.30;93.90
2200;DHT22;1106;48.762;9.168;2022-10-31T18:28:43;14.30;93.70
2200;DHT22;1106;48.762;9.168;2022-10-31T18:31:10;14.30;93.40
2200;DHT22;1106;48.762;9.168;2022-10-31T18:33:37;14.30;93.50
2200;DHT22;1106;48.762;9.168;2022-10-31T18:36:05;14.30;93.40
2200;DHT22;1106;48.762;9.168;2022-10-31T18:38:36;14.20;93.50
2200;DHT22;1106;48.762;9.168;2022-10-31T18:41:04;14.20;93.40
2200;DHT22;1106;48.762;9.168;2022-10-31T18:43:31;14.30;93.00
2200;DHT22;1106;48.762;9.168;2022-10-31T18:46:00;14.50;92.40
2200;DHT22;1106;48.762;9.168;2022-10-31T18:48:28;14.30;92.90
2200;DHT22;1106;48.762;9.168;2022-10-31T18:50:57;14.30;93.40
2200;DHT22;1106;48.762;9.168;2022-10-31T18:53:24;14.20;93.70
2200;DHT22;1106;48.762;9.168;2022-10-31T18:55:52;14.20;93.60
2200;DHT22;1106;48.762;9.168;2022-10-31T18:58:19;14.30;93.50
2200;DHT22;1106;48.762;9.168;2022-10-31T19:00:46;14.20;93.70
2200;DHT22;1106;48.762;9.168;2022-10-31T19:03:15;14.20;93.80
2200;DHT22;1106;48.762;9.168;2022-10-31T19:05:42;14.30;93.50
2200;DHT22;1106;48.762;9.168;2022-10-31T19:08:09;14.20;93.50
2200;DHT22;1106;48.762;9.168;2022-10-31T19:10:38;14.30;93.40
2200;DHT22;1106;48.762;9.168;2022-10-31T19:13:07;14.30;93.40
2200;DHT22;1106;48.762;9.168;2022-10-31T19:15:35;14.40;93.20
2200;DHT22;1106;48.762;9.168;2022-10-31T19:18:02;14.40;93.10
2200;DHT22;1106;48.762;9.168;2022-10-31T19:20:30;14.40;92.90
2200;DHT22;1106;48.762;9.168;2022-10-31T19:22:57;14.50;92.70
2200;DHT22;1106;48.762;9.168;2022-10-31T19:25:24;14.70;91.70
2200;DHT22;1106;48.762;9.168;2022-10-31T19:27:51;14.70;91.40
2200;DHT22;1106;48.762;9.168;2022-10-31T19:30:20;14.80;91.40
2200;DHT22;1106;48.762;9.168;2022-10-31T19:32:47;14.70;91.40
2200;DHT22;1106;48.762;9.168;2022-10-31T19:35:16;14.70;92.00
2200;DHT22;1106;48.762;9.168;2022-10-31T19:37:43;14.70;91.30
2200;DHT22;1106;48.762;9.168;2022-10-31T19:40:10;14.70;91.20
2200;DHT22;1106;48.762;9.168;2022-10-31T19:42:47;14.70;91.30
2200;DHT22;1106;48.762;9.168;2022-10-31T19:45:14;14.70;91.20
2200;DHT22;1106;48.762;9.168;2022-10-31T19:47:43;14.70;91.40
2200;DHT22;1106;48.762;9.168;2022-10-31T19:50:09;14.70;91.20
2200;DHT22;1106;48.762;9.168;2022-10-31T19:52:36;14.70;90.80
2200;DHT22;1106;48.762;9.168;2022-10-31T19:55:06;14.70;90.70
2200;DHT22;1106;48.762;9.168;2022-10-31T19:57:33;14.70;90.60
2200;DHT22;1106;48.762;9.168;2022-10-31T20:00:02;14.70;90.40
2200;DHT22;1106;48.762;9.168;2022-10-31T20:02:29;14.70;90.40
2200;DHT22;1106;48.762;9.168;2022-10-31T20:04:58;14.60;90.40
2200;DHT22;1106;48.762;9.168;2022-10-31T20:07:26;14.60;90.60
2200;DHT22;1106;48.762;9.168;2022-10-31T20:09:53;14.70;90.60
2200;DHT22;1106;48.762;9.168;2022-10-31T20:12:21;14.50;90.70
2200;DHT22;1106;48.762;9.168;2022-10-31T20:14:48;14.50;90.90
2200;DHT22;1106;48.762;9.168;2022-10-31T20:17:18;14.40;91.10
2200;DHT22;1106;48.762;9.168;2022-10-31T20:19:45;14.40;91.00
2200;DHT22;1106;48.762;9.168;2022-10-31T20:22:13;14.30;91.60
2200;DHT22;1106;48.762;9.168;2022-10-31T20:24:40;14.30;91.70
2200;DHT22;1106;48.762;9.168;2022-10-31T20:27:07;14.30;91.70
2200;DHT22;1106;48.762;9.168;2022-10-31T20:29:34;14.30;91.80
2200;DHT22;1106;48.762;9.168;2022-10-31T20:32:01;14.30;91.70
2200;DHT22;1106;48.762;9.168;2022-10-31T20:34:31;14.20;91.80
2200;DHT22;1106;48.762;9.168;2022-10-31T20:37:06;14.20;92.20
2200;DHT22;1106;48.762;9.168;2022-10-31T20:39:38;14.20;92.10
2200;DHT22;1106;48.762;9.168;2022-10-31T20:42:08;14.20;92.10
2200;DHT22;1106;48.762;9.168;2022-10-31T20:44:35;14.20;92.00
2200;DHT22;1106;48.762;9.168;2022-10-31T20:47:03;14.20;91.90
2200;DHT22;1106;48.762;9.168;2022-10-31T20:49:31;14.30;91.80
2200;DHT22;1106;48.762;9.168;2022-10-31T20:51:58;14.20;91.80
2200;DHT22;1106;48.762;9.168;2022-10-31T20:54:27;14.10;92.10
2200;DHT22;1106;48.762;9.168;2022-10-31T20:56:55;14.10;92.30
2200;DHT22;1106;48.762;9.168;2022-10-31T20:59:24;14.20;92.00
2200;DHT22;1106;48.762;9.168;2022-10-31T21:01:51;14.10;91.80
2200;DHT22;1106;48.762;9.168;2022-10-31T21:04:18;14.10;92.00
2200;DHT22;1106;48.762;9.168;2022-10-31T21:06:47;14.00;92.20
2200;DHT22;1106;48.762;9.168;2022-10-31T21:09:14;13.90;92.60
2200;DHT22;1106;48.762;9.168;2022-10-31T21:11:42;13.90;93.00
2200;DHT22;1106;48.762;9.168;2022-10-31T21:14:11;13.90;93.10
2200;DHT22;1106;48.762;9.168;2022-10-31T21:16:38;13.90;93.10
2200;DHT22;1106;48.762;9.168;2022-10-31T21:19:05;13.90;92.90
2200;DHT22;1106;48.762;9.168;2022-10-31T21:21:35;13.90;93.00
2200;DHT22;1106;48.762;9.168;2022-10-31T21:24:05;13.90;93.20
2200;DHT22;1106;48.762;9.168;2022-10-31T21:26:43;13.90;93.10
2200;DHT22;1106;48.762;9.168;2022-10-31T21:29:27;13.80;93.40
2200;DHT22;1106;48.762;9.168;2022-10-31T21:32:10;13.80;93.20
2200;DHT22;1106;48.762;9.168;2022-10-31T21:34:39;13.70;93.20
2200;DHT22;1106;48.762;9.168;2022-10-31T21:37:22;13.70;93.60
2200;DHT22;1106;48.762;9.168;2022-10-31T21:40:25;13.70;93.60
2200;DHT22;1106;48.762;9.168;2022-10-31T21:42:59;13.80;93.50
2200;DHT22;1106;48.762;9.168;2022-10-31T21:45:37;13.80;93.30
2200;DHT22;1106;48.762;9.168;2022-10-31T21:48:04;13.70;93.40
2200;DHT22;1106;48.762;9.168;2022-10-31T21:50:55;13.70;93.50
2200;DHT22;1106;48.762;9.168;2022-10-31T21:53:28;13.80;93.50
2200;DHT22;1106;48.762;9.168;2022-10-31T21:56:13;13.70;93.30
2200;DHT22;1106;48.762;9.168;2022-10-31T21:58:39;13.80;93.20
2200;DHT22;1106;48.762;9.168;2022-10-31T22:01:08;13.90;92.60
2200;DHT22;1106;48.762;9.168;2022-10-31T22:03:38;13.80;92.80
2200;DHT22;1106;48.762;9.168;2022-10-31T22:06:06;13.70;93.10
2200;DHT22;1106;48.762;9.168;2022-10-31T22:08:33;13.60;93.40
2200;DHT22;1106;48.762;9.168;2022-10-31T22:11:01;13.60;93.50
2200;DHT22;1106;48.762;9.168;2022-10-31T22:13:29;13.60;93.50
2200;DHT22;1106;48.762;9.168;2022-10-31T22:15:59;13.60;93.50
2200;DHT22;1106;48.762;9.168;2022-10-31T22:18:28;13.60;93.40
2200;DHT22;1106;48.762;9.168;2022-10-31T22:21:00;13.60;93.30
2200;DHT22;1106;48.762;9.168;2022-10-31T22:23:27;13.60;93.30
2200;DHT22;1106;48.762;9.168;2022-10-31T22:25:54;13.60;93.50
2200;DHT22;1106;48.762;9.168;2022-10-31T22:28:20;13.50;93.80
2200;DHT22;1106;48.762;9.168;2022-10-31T22:30:47;13.50;93.90
2200;DHT22;1106;48.762;9.168;2022-10-31T22:33:14;13.50;93.70
2200;DHT22;1106;48.762;9.168;2022-10-31T22:35:48;13.50;93.80
2200;DHT22;1106;48.762;9.168;2022-10-31T22:38:23;13.40;94.20
2200;DHT22;1106;48.762;9.168;2022-10-31T22:40:58;13.40;94.40
2200;DHT22;1106;48.762;9.168;2022-10-31T22:43:29;13.40;94.60
2200;DHT22;1106;48.762;9.168;2022-10-31T22:45:57;13.40;94.30
2200;DHT22;1106;48.762;9.168;2022-10-31T22:48:25;13.40;94.20
2200;DHT22;1106;48.762;9.168;2022-10-31T22:50:53;13.40;94.20
2200;DHT22;1106;48.762;9.168;2022-10-31T22:53:20;13.40;94.20
2200;DHT22;1106;48.762;9.168;2022-10-31T22:55:48;13.40;94.20
2200;DHT22;1106;48.762;9.168;2022-10-31T22:58:15;13.40;94.10
2200;DHT22;1106;48.762;9.168;2022-10-31T23:00:42;13.30;94.30
2200;DHT22;1106;48.762;9.168;2022-10-31T23:03:09;13.30;94.30
2200;DHT22;1106;48.762;9.168;2022-10-31T23:05:36;13.40;94.00
2200;DHT22;1106;48.762;9.168;2022-10-31T23:08:04;13.50;93.40
2200;DHT22;1106;48.762;9.168;2022-10-31T23:10:32;13.50;93.30
2200;DHT22;1106;48.762;9.168;2022-10-31T23:13:00;13.40;93.80
2200;DHT22;1106;48.762;9.168;2022-10-31T23:15:44;13.30;94.20
2200;DHT22;1106;48.762;9.168;2022-10-31T23:18:11;13.30;94.30
2200;DHT22;1106;48.762;9.168;2022-10-31T23:20:38;13.20;94.50
2200;DHT22;1106;48.762;9.168;2022-10-31T23:23:06;13.20;94.50
2200;DHT22;1106;48.762;9.168;2022-10-31T23:25:33;13.20;94.60
2200;DHT22;1106;48.762;9.168;2022-10-31T23:28:17;13.20;94.50
2200;DHT22;1106;48.762;9.168;2022-10-31T23:30:44;13.20;94.50
2200;DHT22;1106;48.762;9.168;2022-10-31T23:33:11;13.20;94.60
2200;DHT22;1106;48.762;9.168;2022-10-31T23:35:38;13.20;94.50
2200;DHT22;1106;48.762;9.168;2022-10-31T23:38:07;13.20;94.60
2200;DHT22;1106;48.762;9.168;2022-10-31T23:40:33;13.30;94.30
2200;DHT22;1106;48.762;9.168;2022-10-31T23:43:03;13.20;94.30
2200;DHT22;1106;48.762;9.168;2022-10-31T23:45:29;13.20;94.40
2200;DHT22;1106;48.762;9.168;2022-10-31T23:47:56;13.30;94.20
2200;DHT22;1106;48.762;9.168;2022-10-31T23:50:23;13.30;94.00
2200;DHT22;1106;48.762;9.168;2022-10-31T23:52:50;13.30;94.00